Time;durP1;ratioP1;P1;durP2;ratioP2;P2;SDS_P1;SDS_P2;PMS_P1;PMS_P2;Temp;Humidity;BMP_temperature;BMP_pressure;BME280_temperature;BME280_humidity;BME280_pressure;Samples;Min_cycle;Max_cycle;Signal;HPM_P1;HPM_P2
2022/04/24 00:01:06;;;;;;;;;;;12.40;96.60;;;;;;5114600;27;19943;-71
2022/04/24 00:03:34;;;;;;;;;;;12.30;96.30;;;;;;5119890;28;20442;-70
2022/04/24 00:06:01;;;;;;;;;;;12.30;96.70;;;;;;5126314;27;19972;-70
2022/04/24 00:08:28;;;;;;;;;;;12.30;96.30;;;;;;5121342;27;20017;-70
2022/04/24 00:10:54;;;;;;;;;;;12.30;97.00;;;;;;5127526;27;20703;-72
2022/04/24 00:13:23;;;;;;;;;;;12.30;96.50;;;;;;5124880;27;20067;-72
2022/04/24 00:15:49;;;;;;;;;;;12.20;97.40;;;;;;5116433;28;20038;-70
2022/04/24 00:18:16;;;;;;;;;;;12.20;96.80;;;;;;5119900;28;19957;-69
2022/04/24 00:20:44;;;;;;;;;;;12.10;97.10;;;;;;5116293;27;19952;-70
2022/04/24 00:23:11;;;;;;;;;;;12.10;96.90;;;;;;5116056;28;20410;-70
2022/04/24 00:25:37;;;;;;;;;;;12.10;97.30;;;;;;5117186;28;19953;-71
2022/04/24 00:28:04;;;;;;;;;;;12.10;96.70;;;;;;5130279;27;20386;-71
2022/04/24 00:30:30;;;;;;;;;;;12.00;97.10;;;;;;5127382;27;20004;-71
2022/04/24 00:32:57;;;;;;;;;;;12.00;97.10;;;;;;5119201;27;19953;-71
2022/04/24 00:35:23;;;;;;;;;;;12.00;97.50;;;;;;5123864;27;19947;-69
2022/04/24 00:37:51;;;;;;;;;;;12.00;97.70;;;;;;5121969;27;20006;-69
2022/04/24 00:40:19;;;;;;;;;;;12.00;97.40;;;;;;5131555;27;19972;-71
2022/04/24 00:42:45;;;;;;;;;;;12.00;97.60;;;;;;5116755;27;19954;-70
2022/04/24 00:45:12;;;;;;;;;;;12.00;97.90;;;;;;5118844;27;19972;-69
2022/04/24 00:47:41;;;;;;;;;;;12.00;97.40;;;;;;5114593;27;19981;-69
2022/04/24 00:50:08;;;;;;;;;;;12.00;97.80;;;;;;5116426;27;19956;-71
2022/04/24 00:52:35;;;;;;;;;;;11.90;97.60;;;;;;5124099;27;20417;-69
2022/04/24 00:55:03;;;;;;;;;;;11.90;97.60;;;;;;5134595;27;19955;-71
2022/04/24 00:57:30;;;;;;;;;;;11.90;97.80;;;;;;5123969;27;19962;-70
2022/04/24 00:59:56;;;;;;;;;;;11.80;98.10;;;;;;5122357;27;19946;-70
2022/04/24 01:02:23;;;;;;;;;;;11.80;98.10;;;;;;5127948;27;19955;-69
2022/04/24 01:04:50;;;;;;;;;;;11.80;98.30;;;;;;5127341;27;20020;-70
2022/04/24 01:07:16;;;;;;;;;;;11.80;98.20;;;;;;5121701;27;20035;-70
2022/04/24 01:09:43;;;;;;;;;;;11.80;98.30;;;;;;5131961;27;19944;-70
2022/04/24 01:12:11;;;;;;;;;;;11.80;98.30;;;;;;5129301;27;20044;-70
2022/04/24 01:14:37;;;;;;;;;;;11.80;98.50;;;;;;5140624;27;20330;-70
2022/04/24 01:17:05;;;;;;;;;;;11.80;98.30;;;;;;5140930;27;20006;-69
2022/04/24 01:19:32;;;;;;;;;;;11.80;98.40;;;;;;5134192;27;19960;-71
2022/04/24 01:22:00;;;;;;;;;;;11.80;98.30;;;;;;5117623;27;19948;-69
2022/04/24 01:24:27;;;;;;;;;;;11.80;98.10;;;;;;5111696;28;19953;-70
2022/04/24 01:26:54;;;;;;;;;;;11.80;98.00;;;;;;5109497;28;20417;-70
2022/04/24 01:29:20;;;;;;;;;;;11.80;98.20;;;;;;5109217;28;20473;-69
2022/04/24 01:31:48;;;;;;;;;;;11.80;98.00;;;;;;5121346;27;19951;-69
2022/04/24 01:34:15;;;;;;;;;;;11.80;98.10;;;;;;5128746;27;20312;-70
2022/04/24 01:36:42;;;;;;;;;;;11.80;98.20;;;;;;5126615;27;20025;-70
2022/04/24 01:39:10;;;;;;;;;;;11.70;98.20;;;;;;5118514;27;19971;-71
2022/04/24 01:41:36;;;;;;;;;;;11.70;98.30;;;;;;5112217;27;20329;-72
2022/04/24 01:44:03;;;;;;;;;;;11.60;98.80;;;;;;5110966;28;19956;-71
2022/04/24 01:46:30;;;;;;;;;;;11.60;98.20;;;;;;5111621;27;20310;-70
2022/04/24 01:48:56;;;;;;;;;;;11.50;98.30;;;;;;5127221;27;19931;-71
2022/04/24 01:51:23;;;;;;;;;;;11.50;99.10;;;;;;5117131;27;19980;-70
2022/04/24 01:53:49;;;;;;;;;;;11.50;99.50;;;;;;5121712;27;19936;-71
2022/04/24 01:56:17;;;;;;;;;;;11.50;99.50;;;;;;5113083;27;19931;-70
2022/04/24 01:58:43;;;;;;;;;;;11.50;98.80;;;;;;5127628;27;20004;-70
2022/04/24 02:01:10;;;;;;;;;;;11.50;98.80;;;;;;5123937;27;19931;-71
2022/04/24 02:03:37;;;;;;;;;;;11.40;99.50;;;;;;5111564;27;20311;-70
2022/04/24 02:06:04;;;;;;;;;;;11.50;99.20;;;;;;5109989;27;20317;-70
2022/04/24 02:08:31;;;;;;;;;;;11.40;99.30;;;;;;5120270;27;19927;-69
2022/04/24 02:10:58;;;;;;;;;;;11.50;99.10;;;;;;5124329;27;20003;-72
2022/04/24 02:13:26;;;;;;;;;;;11.40;99.40;;;;;;5130434;27;20003;-70
2022/04/24 02:15:53;;;;;;;;;;;11.50;99.20;;;;;;5116114;27;20041;-70
2022/04/24 02:18:19;;;;;;;;;;;11.40;99.60;;;;;;5133200;27;20030;-71
2022/04/24 02:20:46;;;;;;;;;;;11.40;99.30;;;;;;5115087;27;20431;-70
2022/04/24 02:23:12;;;;;;;;;;;11.40;98.80;;;;;;5116229;27;19962;-71
2022/04/24 02:25:39;;;;;;;;;;;11.40;99.50;;;;;;5124783;27;19975;-72
2022/04/24 02:28:05;;;;;;;;;;;11.40;99.20;;;;;;5128964;27;20412;-70
2022/04/24 02:30:35;;;;;;;;;;;11.40;99.60;;;;;;5113653;27;20027;-70
2022/04/24 02:33:01;;;;;;;;;;;11.40;99.50;;;;;;5114557;27;20036;-69
2022/04/24 02:35:30;;;;;;;;;;;11.30;99.60;;;;;;5121578;27;19952;-71
2022/04/24 02:37:56;;;;;;;;;;;11.30;99.90;;;;;;5107461;28;19982;-71
2022/04/24 02:40:23;;;;;;;;;;;11.30;99.40;;;;;;5109787;27;20053;-71
2022/04/24 02:42:50;;;;;;;;;;;11.30;99.50;;;;;;5121526;27;19956;-71
2022/04/24 02:45:17;;;;;;;;;;;11.30;99.90;;;;;;5126332;27;19967;-70
2022/04/24 02:47:45;;;;;;;;;;;11.30;99.80;;;;;;5114184;27;19971;-71
2022/04/24 02:50:11;;;;;;;;;;;11.30;99.80;;;;;;5120211;27;19985;-71
2022/04/24 02:52:48;;;;;;;;;;;11.30;99.90;;;;;;5121265;27;19958;-71
2022/04/24 02:55:15;;;;;;;;;;;11.20;99.90;;;;;;5119465;27;20582;-71
2022/04/24 02:57:42;;;;;;;;;;;11.20;99.90;;;;;;5113801;27;20022;-71
2022/04/24 03:00:09;;;;;;;;;;;11.20;99.90;;;;;;5121881;27;20018;-71
2022/04/24 03:02:41;;;;;;;;;;;11.20;99.90;;;;;;5124579;27;19951;-71
2022/04/24 03:05:08;;;;;;;;;;;11.20;99.90;;;;;;5107300;28;19948;-71
2022/04/24 03:07:35;;;;;;;;;;;11.20;99.90;;;;;;5120646;27;19972;-71
2022/04/24 03:10:01;;;;;;;;;;;11.20;99.90;;;;;;5124392;27;19968;-71
2022/04/24 03:12:29;;;;;;;;;;;11.10;99.90;;;;;;5112439;27;19950;-71
2022/04/24 03:14:56;;;;;;;;;;;11.10;99.90;;;;;;5107151;28;19955;-69
2022/04/24 03:17:22;;;;;;;;;;;11.10;99.90;;;;;;5120524;27;20426;-71
2022/04/24 03:19:49;;;;;;;;;;;11.20;99.90;;;;;;5119625;27;19949;-70
2022/04/24 03:22:17;;;;;;;;;;;11.10;99.90;;;;;;5126903;27;19949;-70
2022/04/24 03:24:44;;;;;;;;;;;11.10;99.90;;;;;;5125520;27;19945;-72
2022/04/24 03:27:10;;;;;;;;;;;11.00;99.90;;;;;;5122887;27;19951;-69
2022/04/24 03:29:37;;;;;;;;;;;11.00;99.90;;;;;;5118333;27;19972;-71
2022/04/24 03:32:03;;;;;;;;;;;11.10;99.90;;;;;;5124996;27;19987;-71
2022/04/24 03:34:31;;;;;;;;;;;11.10;99.90;;;;;;5124474;28;19950;-71
2022/04/24 03:36:57;;;;;;;;;;;11.00;99.90;;;;;;5129809;27;19990;-71
2022/04/24 03:39:25;;;;;;;;;;;10.90;99.90;;;;;;5117459;28;19995;-71
2022/04/24 03:41:52;;;;;;;;;;;10.90;99.90;;;;;;5112228;28;19952;-69
2022/04/24 03:44:18;;;;;;;;;;;10.90;99.90;;;;;;5127390;27;19952;-70
2022/04/24 03:46:45;;;;;;;;;;;10.90;99.90;;;;;;5108510;28;19948;-69
2022/04/24 03:49:11;;;;;;;;;;;10.90;99.90;;;;;;5106399;28;20467;-70
2022/04/24 03:51:38;;;;;;;;;;;10.90;99.90;;;;;;5124302;28;19927;-70
2022/04/24 03:54:05;;;;;;;;;;;10.80;99.90;;;;;;5129857;27;19993;-69
2022/04/24 03:56:33;;;;;;;;;;;10.80;99.90;;;;;;5114996;28;19974;-70
2022/04/24 03:58:59;;;;;;;;;;;10.80;99.90;;;;;;5110841;28;19975;-69
2022/04/24 04:01:26;;;;;;;;;;;10.70;99.90;;;;;;5119385;27;20070;-72
2022/04/24 04:03:52;;;;;;;;;;;10.70;99.90;;;;;;5126433;27;19950;-69
2022/04/24 04:06:19;;;;;;;;;;;10.70;99.90;;;;;;5110378;27;19996;-69
2022/04/24 04:08:46;;;;;;;;;;;10.70;99.90;;;;;;5110737;28;20043;-69
2022/04/24 04:11:12;;;;;;;;;;;10.60;99.90;;;;;;5120839;27;20400;-69
2022/04/24 04:13:41;;;;;;;;;;;10.60;99.90;;;;;;5123105;27;19996;-69
2022/04/24 04:16:07;;;;;;;;;;;10.50;99.90;;;;;;5129031;27;19999;-69
2022/04/24 04:18:34;;;;;;;;;;;10.50;99.90;;;;;;5132241;27;19954;-70
2022/04/24 04:21:00;;;;;;;;;;;10.40;99.90;;;;;;5117191;27;19975;-70
2022/04/24 04:23:27;;;;;;;;;;;10.30;99.90;;;;;;5113169;27;19991;-69
2022/04/24 04:25:54;;;;;;;;;;;10.30;99.90;;;;;;5122979;27;19952;-69
2022/04/24 04:28:20;;;;;;;;;;;10.30;99.90;;;;;;5123282;27;20447;-69
2022/04/24 04:30:48;;;;;;;;;;;10.20;99.90;;;;;;5119021;27;19966;-70
2022/04/24 04:33:15;;;;;;;;;;;10.30;99.90;;;;;;5122826;27;19970;-70
2022/04/24 04:35:41;;;;;;;;;;;10.30;99.90;;;;;;5109955;28;20006;-69
2022/04/24 04:38:08;;;;;;;;;;;10.20;99.90;;;;;;5123561;27;20204;-69
2022/04/24 04:40:34;;;;;;;;;;;10.20;99.90;;;;;;5122310;27;20018;-71
2022/04/24 04:43:01;;;;;;;;;;;10.20;99.90;;;;;;5136074;27;19962;-71
2022/04/24 04:45:27;;;;;;;;;;;10.20;99.90;;;;;;5114701;27;19941;-71
2022/04/24 04:47:55;;;;;;;;;;;10.20;99.90;;;;;;5122510;27;19973;-71
2022/04/24 04:50:22;;;;;;;;;;;10.20;99.90;;;;;;5117735;27;19950;-70
2022/04/24 04:52:48;;;;;;;;;;;10.20;99.90;;;;;;5116128;27;20081;-69
2022/04/24 04:55:15;;;;;;;;;;;10.20;99.90;;;;;;5122098;27;19947;-73
2022/04/24 04:57:41;;;;;;;;;;;10.20;99.90;;;;;;5150983;22;20391;-74
2022/04/24 05:00:08;;;;;;;;;;;10.20;99.90;;;;;;5100113;28;20010;-73
2022/04/24 05:02:38;;;;;;;;;;;10.20;99.90;;;;;;5113312;28;19944;-74
2022/04/24 05:05:07;;;;;;;;;;;10.20;99.90;;;;;;5107145;28;19947;-75
2022/04/24 05:07:34;;;;;;;;;;;10.20;99.90;;;;;;5112379;28;19977;-74
2022/04/24 05:10:00;;;;;;;;;;;10.20;99.90;;;;;;5092599;28;20014;-74
2022/04/24 05:12:27;;;;;;;;;;;10.20;99.90;;;;;;5088147;28;19944;-74
2022/04/24 05:14:54;;;;;;;;;;;10.20;99.90;;;;;;5086275;28;20512;-74
2022/04/24 05:17:21;;;;;;;;;;;10.30;99.90;;;;;;5091901;28;19970;-73
2022/04/24 05:19:47;;;;;;;;;;;10.40;99.90;;;;;;5093655;28;19967;-74
2022/04/24 05:22:15;;;;;;;;;;;10.50;99.90;;;;;;5093877;28;19952;-74
2022/04/24 05:24:42;;;;;;;;;;;10.70;99.90;;;;;;5116290;28;19959;-73
2022/04/24 05:27:08;;;;;;;;;;;10.90;99.90;;;;;;5107721;28;20022;-74
2022/04/24 05:29:35;;;;;;;;;;;11.00;99.90;;;;;;5092311;28;19971;-73
2022/04/24 05:32:01;;;;;;;;;;;11.20;99.90;;;;;;5093010;28;20433;-73
2022/04/24 05:34:28;;;;;;;;;;;11.30;99.90;;;;;;5092665;28;20024;-74
2022/04/24 05:36:54;;;;;;;;;;;11.40;99.90;;;;;;5090729;28;19959;-74
2022/04/24 05:39:22;;;;;;;;;;;11.50;99.90;;;;;;5093104;28;19968;-74
2022/04/24 05:41:49;;;;;;;;;;;11.60;99.90;;;;;;5088528;28;20020;-74
2022/04/24 05:44:15;;;;;;;;;;;11.70;99.90;;;;;;5087906;28;19951;-74
2022/04/24 05:46:42;;;;;;;;;;;11.80;99.90;;;;;;5093966;28;19945;-75
2022/04/24 05:49:08;;;;;;;;;;;11.90;99.90;;;;;;5105397;28;19976;-74
2022/04/24 05:51:35;;;;;;;;;;;11.90;99.90;;;;;;5095130;28;20007;-75
2022/04/24 05:54:01;;;;;;;;;;;12.00;99.90;;;;;;5096911;28;19959;-75
2022/04/24 05:56:29;;;;;;;;;;;12.00;99.90;;;;;;5112331;28;19950;-74
2022/04/24 05:58:56;;;;;;;;;;;12.10;99.90;;;;;;5089962;28;20020;-73
2022/04/24 06:01:22;;;;;;;;;;;12.10;99.90;;;;;;5084559;28;20391;-74
2022/04/24 06:03:49;;;;;;;;;;;12.10;99.90;;;;;;5093476;28;20003;-74
2022/04/24 06:06:16;;;;;;;;;;;12.20;99.90;;;;;;5107114;28;20044;-74
2022/04/24 06:08:43;;;;;;;;;;;12.30;99.90;;;;;;5095096;28;19983;-74
2022/04/24 06:11:10;;;;;;;;;;;12.40;99.90;;;;;;5079909;28;20355;-74
2022/04/24 06:13:39;;;;;;;;;;;12.50;99.90;;;;;;5094829;28;19960;-73
2022/04/24 06:16:05;;;;;;;;;;;12.60;99.90;;;;;;5080961;28;19971;-74
2022/04/24 06:18:32;;;;;;;;;;;12.80;99.90;;;;;;5094080;28;19970;-73
2022/04/24 06:20:59;;;;;;;;;;;12.90;99.90;;;;;;5102823;28;19949;-76
2022/04/24 06:23:27;;;;;;;;;;;12.90;99.90;;;;;;5101946;28;20181;-75
2022/04/24 06:25:54;;;;;;;;;;;13.00;99.90;;;;;;5092063;28;19946;-75
2022/04/24 06:28:20;;;;;;;;;;;12.90;99.90;;;;;;5096150;28;20492;-75
2022/04/24 06:30:48;;;;;;;;;;;12.90;99.90;;;;;;5093620;28;19951;-74
2022/04/24 06:33:15;;;;;;;;;;;12.80;99.90;;;;;;5105443;28;19954;-75
2022/04/24 06:35:42;;;;;;;;;;;12.80;99.90;;;;;;5113389;28;20014;-73
2022/04/24 06:38:09;;;;;;;;;;;12.70;99.90;;;;;;5099467;28;19931;-72
2022/04/24 06:40:35;;;;;;;;;;;12.80;99.90;;;;;;5095647;28;20051;-74
2022/04/24 06:43:04;;;;;;;;;;;12.80;99.90;;;;;;5097560;28;20617;-74
2022/04/24 06:45:31;;;;;;;;;;;12.90;99.90;;;;;;5088543;28;20331;-74
2022/04/24 06:48:00;;;;;;;;;;;12.90;99.90;;;;;;5078557;28;19993;-74
2022/04/24 06:50:27;;;;;;;;;;;13.10;99.90;;;;;;5099555;28;19940;-74
2022/04/24 06:53:00;;;;;;;;;;;13.30;99.90;;;;;;5112503;28;19953;-74
2022/04/24 06:55:27;;;;;;;;;;;13.40;99.90;;;;;;5112686;28;20329;-73
2022/04/24 06:57:53;;;;;;;;;;;13.60;99.90;;;;;;5090685;28;19947;-74
2022/04/24 07:00:20;;;;;;;;;;;13.60;99.90;;;;;;5089719;28;19954;-74
2022/04/24 07:02:47;;;;;;;;;;;13.70;99.90;;;;;;5087766;28;19954;-74
2022/04/24 07:05:15;;;;;;;;;;;13.80;99.90;;;;;;5092229;28;19950;-74
2022/04/24 07:07:42;;;;;;;;;;;13.70;99.90;;;;;;5090579;28;19949;-75
2022/04/24 07:10:09;;;;;;;;;;;13.70;99.90;;;;;;5101961;28;20068;-74
2022/04/24 07:12:44;;;;;;;;;;;13.70;99.90;;;;;;5095109;28;19948;-74
2022/04/24 07:15:10;;;;;;;;;;;13.80;99.90;;;;;;5101270;28;20023;-74
2022/04/24 07:17:37;;;;;;;;;;;13.80;99.90;;;;;;5078558;28;19975;-75
2022/04/24 07:20:03;;;;;;;;;;;13.90;99.90;;;;;;5091733;28;19957;-74
2022/04/24 07:22:40;;;;;;;;;;;14.00;99.90;;;;;;5091912;28;19957;-74
2022/04/24 07:25:07;;;;;;;;;;;14.10;99.90;;;;;;5095626;28;19946;-75
2022/04/24 07:27:34;;;;;;;;;;;14.20;99.90;;;;;;5099100;28;19964;-74
2022/04/24 07:30:00;;;;;;;;;;;14.30;99.90;;;;;;5122212;28;20023;-75
2022/04/24 07:32:27;;;;;;;;;;;14.40;99.90;;;;;;5132570;28;19950;-75
2022/04/24 07:34:53;;;;;;;;;;;14.60;99.90;;;;;;5130050;28;20484;-76
2022/04/24 07:37:20;;;;;;;;;;;14.70;99.90;;;;;;5083085;28;19953;-74
2022/04/24 07:39:47;;;;;;;;;;;14.90;99.90;;;;;;5086782;28;19964;-75
2022/04/24 07:42:14;;;;;;;;;;;15.10;99.90;;;;;;5089386;28;19952;-75
2022/04/24 07:44:40;;;;;;;;;;;15.20;99.90;;;;;;5092069;28;19944;-74
2022/04/24 07:47:07;;;;;;;;;;;15.30;99.90;;;;;;5092347;28;20517;-73
2022/04/24 07:49:33;;;;;;;;;;;15.40;99.90;;;;;;5086542;28;20224;-74
2022/04/24 07:52:00;;;;;;;;;;;15.40;99.90;;;;;;5079317;28;19948;-74
2022/04/24 07:54:26;;;;;;;;;;;15.60;99.90;;;;;;5113777;28;19924;-74
2022/04/24 07:56:54;;;;;;;;;;;15.70;99.90;;;;;;5103060;28;19981;-74
2022/04/24 07:59:21;;;;;;;;;;;15.70;99.90;;;;;;5102177;28;19945;-75
2022/04/24 08:01:51;;;;;;;;;;;15.80;99.90;;;;;;5094544;28;19924;-75
2022/04/24 08:04:17;;;;;;;;;;;15.90;99.90;;;;;;5091843;28;19926;-75
2022/04/24 08:06:44;;;;;;;;;;;16.00;99.90;;;;;;5091347;28;19924;-75
2022/04/24 08:09:10;;;;;;;;;;;16.10;99.90;;;;;;5080288;28;20404;-74
2022/04/24 08:11:37;;;;;;;;;;;16.10;99.90;;;;;;5079047;28;19924;-74
2022/04/24 08:14:05;;;;;;;;;;;16.10;99.90;;;;;;5090229;28;19973;-75
2022/04/24 08:16:31;;;;;;;;;;;16.20;99.90;;;;;;5090810;28;20314;-73
2022/04/24 08:19:00;;;;;;;;;;;16.30;99.90;;;;;;5091563;28;20068;-74
2022/04/24 08:21:27;;;;;;;;;;;16.40;99.90;;;;;;5090986;28;19920;-74
2022/04/24 08:23:53;;;;;;;;;;;16.50;99.90;;;;;;5103705;28;19919;-74
2022/04/24 08:26:20;;;;;;;;;;;16.70;99.90;;;;;;5090034;28;20382;-74
2022/04/24 08:28:46;;;;;;;;;;;16.90;99.90;;;;;;5095222;28;19924;-73
2022/04/24 08:31:14;;;;;;;;;;;17.10;99.90;;;;;;5091636;28;20327;-73
2022/04/24 08:33:40;;;;;;;;;;;17.30;99.90;;;;;;5091828;28;19977;-73
2022/04/24 08:36:07;;;;;;;;;;;17.50;99.90;;;;;;5096888;28;19919;-75
2022/04/24 08:38:33;;;;;;;;;;;17.70;99.90;;;;;;5112285;28;19920;-75
2022/04/24 08:41:01;;;;;;;;;;;17.90;99.90;;;;;;5088142;28;20351;-75
2022/04/24 08:43:27;;;;;;;;;;;18.10;99.90;;;;;;5092464;28;19932;-75
2022/04/24 08:45:54;;;;;;;;;;;18.30;99.90;;;;;;5097525;28;20373;-74
2022/04/24 08:48:22;;;;;;;;;;;18.50;99.90;;;;;;5099665;28;19920;-75
2022/04/24 08:50:48;;;;;;;;;;;18.60;99.90;;;;;;5080216;28;19973;-75
2022/04/24 08:53:16;;;;;;;;;;;18.80;99.00;;;;;;5094243;28;19965;-74
2022/04/24 08:55:42;;;;;;;;;;;18.90;98.50;;;;;;5094952;28;19995;-74
2022/04/24 08:58:09;;;;;;;;;;;19.00;98.90;;;;;;5095030;28;19920;-73
2022/04/24 09:00:35;;;;;;;;;;;19.00;97.80;;;;;;5101711;28;19931;-75
2022/04/24 09:03:02;;;;;;;;;;;19.00;98.30;;;;;;5100710;28;20355;-74
2022/04/24 09:05:30;;;;;;;;;;;19.00;98.00;;;;;;5098089;28;19931;-74
2022/04/24 09:08:04;;;;;;;;;;;19.10;98.50;;;;;;5094614;28;19920;-74
2022/04/24 09:10:31;;;;;;;;;;;19.10;98.60;;;;;;5092478;28;19945;-75
2022/04/24 09:12:59;;;;;;;;;;;19.20;97.80;;;;;;5099737;28;20459;-75
2022/04/24 09:15:27;;;;;;;;;;;19.20;97.80;;;;;;5104129;28;19924;-75
2022/04/24 09:18:00;;;;;;;;;;;19.20;97.90;;;;;;5094220;28;20513;-75
2022/04/24 09:20:28;;;;;;;;;;;19.20;97.70;;;;;;5095460;28;20379;-75
2022/04/24 09:23:02;;;;;;;;;;;19.10;96.90;;;;;;5100030;28;20006;-75
2022/04/24 09:25:37;;;;;;;;;;;19.00;97.70;;;;;;5103532;28;19946;-74
2022/04/24 09:28:04;;;;;;;;;;;19.00;98.00;;;;;;5087941;28;19920;-75
2022/04/24 09:30:35;;;;;;;;;;;19.00;98.10;;;;;;5086617;28;19931;-75
2022/04/24 09:33:02;;;;;;;;;;;19.30;98.30;;;;;;5082521;28;20365;-75
2022/04/24 09:35:29;;;;;;;;;;;19.70;97.90;;;;;;5093257;28;20346;-75
2022/04/24 09:38:08;;;;;;;;;;;20.20;97.40;;;;;;5093208;28;20328;-74
2022/04/24 09:40:38;;;;;;;;;;;20.50;97.00;;;;;;5081470;28;19931;-73
2022/04/24 09:43:05;;;;;;;;;;;20.90;96.40;;;;;;5113314;28;19920;-76
2022/04/24 09:45:31;;;;;;;;;;;21.20;96.30;;;;;;5092990;28;19924;-74
2022/04/24 09:47:59;;;;;;;;;;;21.10;95.10;;;;;;5092258;28;20107;-75
2022/04/24 09:50:29;;;;;;;;;;;21.00;94.90;;;;;;5088698;28;19927;-74
2022/04/24 09:52:56;;;;;;;;;;;20.90;94.70;;;;;;5105403;28;19926;-75
2022/04/24 09:55:25;;;;;;;;;;;20.80;94.80;;;;;;5108401;28;20266;-76
2022/04/24 09:57:52;;;;;;;;;;;20.60;94.90;;;;;;5105267;28;19927;-74
2022/04/24 10:00:19;;;;;;;;;;;20.50;94.60;;;;;;5094139;28;19930;-76
2022/04/24 10:02:46;;;;;;;;;;;20.40;94.60;;;;;;5098699;28;19920;-76
2022/04/24 10:05:14;;;;;;;;;;;20.40;94.70;;;;;;5090780;28;20011;-74
2022/04/24 10:07:41;;;;;;;;;;;20.40;95.00;;;;;;5093324;28;20587;-74
2022/04/24 10:10:08;;;;;;;;;;;20.40;95.30;;;;;;5092100;28;20382;-73
2022/04/24 10:12:36;;;;;;;;;;;20.50;96.40;;;;;;5092104;28;20383;-74
2022/04/24 10:15:05;;;;;;;;;;;20.60;95.90;;;;;;5099874;28;19973;-74
2022/04/24 10:17:38;;;;;;;;;;;20.60;95.30;;;;;;5100636;28;19923;-73
2022/04/24 10:20:18;;;;;;;;;;;20.60;95.20;;;;;;5084697;28;21916;-76
2022/04/24 10:22:47;;;;;;;;;;;20.60;94.00;;;;;;5124248;28;20378;-76
2022/04/24 10:25:15;;;;;;;;;;;20.40;94.20;;;;;;5084445;28;19925;-74
2022/04/24 10:27:43;;;;;;;;;;;20.40;94.00;;;;;;5083390;28;20027;-75
2022/04/24 10:30:12;;;;;;;;;;;20.50;94.40;;;;;;5099507;28;19931;-73
2022/04/24 10:32:39;;;;;;;;;;;20.80;95.00;;;;;;5089006;28;19928;-75
2022/04/24 10:35:15;;;;;;;;;;;21.00;94.40;;;;;;5094566;28;19924;-74
2022/04/24 10:37:42;;;;;;;;;;;21.10;93.90;;;;;;5081661;28;19938;-75
2022/04/24 10:40:12;;;;;;;;;;;20.90;93.90;;;;;;5094515;28;19931;-74
2022/04/24 10:42:39;;;;;;;;;;;20.80;94.00;;;;;;5089462;28;19925;-74
2022/04/24 10:45:12;;;;;;;;;;;20.80;94.20;;;;;;5087980;28;19932;-74
2022/04/24 10:47:42;;;;;;;;;;;21.20;94.10;;;;;;5087701;28;20001;-76
2022/04/24 10:50:10;;;;;;;;;;;21.60;93.30;;;;;;5098108;28;20003;-75
2022/04/24 10:52:40;;;;;;;;;;;22.00;93.70;;;;;;5115172;28;19938;-75
2022/04/24 10:55:07;;;;;;;;;;;22.50;93.20;;;;;;5100111;28;19931;-74
2022/04/24 10:57:40;;;;;;;;;;;22.90;92.10;;;;;;5096888;28;19931;-75
2022/04/24 11:00:14;;;;;;;;;;;23.30;91.30;;;;;;5107128;28;19997;-76
2022/04/24 11:02:40;;;;;;;;;;;23.30;91.00;;;;;;5093732;28;19928;-74
2022/04/24 11:05:09;;;;;;;;;;;23.30;90.40;;;;;;5090477;28;19924;-74
2022/04/24 11:07:35;;;;;;;;;;;23.30;90.30;;;;;;5086461;28;20078;-76
2022/04/24 11:10:02;;;;;;;;;;;23.30;90.30;;;;;;5092762;28;20443;-74
2022/04/24 11:12:30;;;;;;;;;;;23.10;90.70;;;;;;5088137;28;19929;-74
2022/04/24 11:15:01;;;;;;;;;;;22.90;90.80;;;;;;5096326;28;20384;-74
2022/04/24 11:17:29;;;;;;;;;;;22.60;90.30;;;;;;5100497;28;19924;-75
2022/04/24 11:19:59;;;;;;;;;;;22.40;90.70;;;;;;5089688;28;19925;-75
2022/04/24 11:22:26;;;;;;;;;;;22.30;90.10;;;;;;5092491;28;19928;-75
2022/04/24 11:24:54;;;;;;;;;;;22.20;90.30;;;;;;5092990;28;19924;-74
2022/04/24 11:27:20;;;;;;;;;;;22.20;88.50;;;;;;5099655;28;19928;-76
2022/04/24 11:29:47;;;;;;;;;;;22.70;90.50;;;;;;5084468;28;19932;-73
2022/04/24 11:32:14;;;;;;;;;;;23.10;90.30;;;;;;5086372;28;19924;-75
2022/04/24 11:34:41;;;;;;;;;;;23.50;90.00;;;;;;5084107;28;20539;-74
2022/04/24 11:37:09;;;;;;;;;;;23.70;90.40;;;;;;5091144;28;19924;-77
2022/04/24 11:39:38;;;;;;;;;;;23.60;88.90;;;;;;5091104;28;19930;-74
2022/04/24 11:42:05;;;;;;;;;;;23.30;87.80;;;;;;5079531;28;20503;-75
2022/04/24 11:50:16;;;;;;;;;;;22.10;88.40;;;;;;5093362;28;19931;-73
2022/04/24 11:52:43;;;;;;;;;;;21.90;89.40;;;;;;5090358;28;19924;-76
2022/04/24 11:55:11;;;;;;;;;;;21.60;88.10;;;;;;5096244;28;20401;-75
2022/04/24 11:57:38;;;;;;;;;;;21.60;89.60;;;;;;5090196;28;19928;-75
2022/04/24 12:00:08;;;;;;;;;;;22.10;89.00;;;;;;5091200;28;19924;-74
2022/04/24 12:02:35;;;;;;;;;;;22.60;89.00;;;;;;5091746;28;19924;-73
2022/04/24 12:05:08;;;;;;;;;;;22.70;87.40;;;;;;5091617;28;19924;-75
2022/04/24 12:07:36;;;;;;;;;;;22.60;87.30;;;;;;5103385;28;19924;-75
2022/04/24 12:10:04;;;;;;;;;;;22.30;86.40;;;;;;5099017;28;19923;-76
2022/04/24 12:12:31;;;;;;;;;;;22.10;86.90;;;;;;5084538;28;20406;-76
2022/04/24 12:14:58;;;;;;;;;;;22.10;88.40;;;;;;5088694;28;20694;-76
2022/04/24 12:17:24;;;;;;;;;;;22.40;90.00;;;;;;5122420;28;19966;-76
2022/04/24 12:19:51;;;;;;;;;;;22.90;88.00;;;;;;5127460;28;19908;-75
2022/04/24 12:22:26;;;;;;;;;;;23.50;87.30;;;;;;5118167;28;20113;-74
2022/04/24 12:24:53;;;;;;;;;;;23.90;86.30;;;;;;5098876;28;19924;-76
2022/04/24 12:27:20;;;;;;;;;;;23.90;85.10;;;;;;5090725;28;20406;-73
2022/04/24 12:29:48;;;;;;;;;;;23.70;84.80;;;;;;5116733;28;19969;-76
2022/04/24 12:32:15;;;;;;;;;;;23.40;84.10;;;;;;5105073;28;19928;-74
2022/04/24 12:34:42;;;;;;;;;;;23.10;85.20;;;;;;5108841;28;19936;-74
2022/04/24 12:37:09;;;;;;;;;;;22.90;84.70;;;;;;5095434;28;19936;-76
2022/04/24 12:39:37;;;;;;;;;;;22.70;86.00;;;;;;5086469;28;19924;-75
2022/04/24 12:42:15;;;;;;;;;;;22.60;86.50;;;;;;5076176;28;19982;-76
2022/04/24 12:44:41;;;;;;;;;;;22.70;85.40;;;;;;5088846;28;19978;-76
2022/04/24 12:47:08;;;;;;;;;;;22.70;85.90;;;;;;5112549;28;19936;-75
2022/04/24 12:49:34;;;;;;;;;;;23.10;85.10;;;;;;5126351;27;20349;-74
2022/04/24 12:52:01;;;;;;;;;;;23.60;85.40;;;;;;5106095;28;19935;-75
2022/04/24 12:54:29;;;;;;;;;;;24.20;84.70;;;;;;5095188;28;19924;-75
2022/04/24 12:56:57;;;;;;;;;;;24.80;83.20;;;;;;5085467;28;19925;-75
2022/04/24 12:59:23;;;;;;;;;;;25.10;82.20;;;;;;5083637;28;19986;-73
2022/04/24 13:01:52;;;;;;;;;;;25.10;81.20;;;;;;5102082;28;19929;-76
2022/04/24 13:04:18;;;;;;;;;;;25.10;80.60;;;;;;5098265;28;20505;-75
2022/04/24 13:06:45;;;;;;;;;;;25.30;81.00;;;;;;5089138;28;19928;-74
2022/04/24 13:09:12;;;;;;;;;;;25.50;80.00;;;;;;5103362;28;19932;-75
2022/04/24 13:11:38;;;;;;;;;;;25.50;79.40;;;;;;5096624;28;19964;-74
2022/04/24 13:14:06;;;;;;;;;;;25.60;79.20;;;;;;5106779;28;20134;-76
2022/04/24 13:19:19;;;;;;;;;;;26.10;78.20;;;;;;5108497;28;20335;-75
2022/04/24 13:21:45;;;;;;;;;;;26.30;77.50;;;;;;5110261;28;19942;-74
2022/04/24 13:24:13;;;;;;;;;;;26.60;76.30;;;;;;5098560;28;19943;-76
2022/04/24 13:26:40;;;;;;;;;;;26.80;74.80;;;;;;5121447;28;19931;-75
2022/04/24 13:29:09;;;;;;;;;;;27.00;74.00;;;;;;5097320;28;19924;-75
2022/04/24 13:31:35;;;;;;;;;;;26.90;73.30;;;;;;5108239;28;19982;-75
2022/04/24 13:34:02;;;;;;;;;;;26.70;72.40;;;;;;5110651;28;20300;-74
2022/04/24 13:36:28;;;;;;;;;;;26.20;71.50;;;;;;5101772;28;19924;-75
2022/04/24 13:38:54;;;;;;;;;;;25.60;70.50;;;;;;5086953;28;20352;-75
2022/04/24 13:41:21;;;;;;;;;;;25.20;71.90;;;;;;5086015;28;19925;-75
2022/04/24 13:43:48;;;;;;;;;;;24.90;72.90;;;;;;5081037;28;19924;-75
2022/04/24 13:46:16;;;;;;;;;;;24.50;73.20;;;;;;5093985;28;20018;-74
2022/04/24 13:48:43;;;;;;;;;;;24.10;72.20;;;;;;5098237;28;20394;-75
2022/04/24 13:51:10;;;;;;;;;;;24.00;73.00;;;;;;5104099;28;19977;-75
2022/04/24 13:53:36;;;;;;;;;;;24.10;72.80;;;;;;5090451;28;20298;-76
2022/04/24 13:56:03;;;;;;;;;;;24.30;71.80;;;;;;5074919;28;20072;-75
2022/04/24 13:58:30;;;;;;;;;;;24.70;72.40;;;;;;5103463;28;19924;-74
2022/04/24 14:00:56;;;;;;;;;;;25.30;71.10;;;;;;5085027;28;19924;-75
2022/04/24 14:03:25;;;;;;;;;;;26.10;71.40;;;;;;5087999;28;19924;-76
2022/04/24 14:05:52;;;;;;;;;;;27.00;69.70;;;;;;5105909;28;19928;-75
2022/04/24 14:08:19;;;;;;;;;;;27.70;69.70;;;;;;5087992;28;19931;-76
2022/04/24 14:10:46;;;;;;;;;;;27.90;65.70;;;;;;5086862;28;19924;-77
2022/04/24 14:13:13;;;;;;;;;;;27.80;64.70;;;;;;5092879;28;19927;-76
2022/04/24 14:15:39;;;;;;;;;;;28.30;66.80;;;;;;5114145;28;19928;-76
2022/04/24 14:18:06;;;;;;;;;;;29.00;65.40;;;;;;5076916;28;19931;-77
2022/04/24 14:20:34;;;;;;;;;;;29.60;64.70;;;;;;5093384;28;19932;-75
2022/04/24 14:23:03;;;;;;;;;;;30.20;63.90;;;;;;5084989;28;20012;-75
2022/04/24 14:25:30;;;;;;;;;;;31.10;61.40;;;;;;5085791;28;19924;-75